sensor_id;sensor_type;location;lat;lon;timestamp;temperature;humidity
16200;DHT22;8207;52.494;4.654;2022-07-23T00:01:10;14.20;99.90
16200;DHT22;8207;52.494;4.654;2022-07-23T00:03:37;14.20;99.90
16200;DHT22;8207;52.494;4.654;2022-07-23T00:06:04;14.20;99.90
16200;DHT22;8207;52.494;4.654;2022-07-23T00:08:31;14.10;99.90
16200;DHT22;8207;52.494;4.654;2022-07-23T00:10:59;14.10;99.90
16200;DHT22;8207;52.494;4.654;2022-07-23T00:13:27;14.10;99.90
16200;DHT22;8207;52.494;4.654;2022-07-23T00:15:54;14.10;99.90
16200;DHT22;8207;52.494;4.654;2022-07-23T00:18:21;14.00;99.90
16200;DHT22;8207;52.494;4.654;2022-07-23T00:20:48;14.00;99.90
16200;DHT22;8207;52.494;4.654;2022-07-23T00:23:14;14.00;99.90
16200;DHT22;8207;52.494;4.654;2022-07-23T00:25:41;13.90;99.90
16200;DHT22;8207;52.494;4.654;2022-07-23T00:28:09;13.90;99.90
16200;DHT22;8207;52.494;4.654;2022-07-23T00:30:36;13.90;99.90
16200;DHT22;8207;52.494;4.654;2022-07-23T00:33:06;13.90;99.90
16200;DHT22;8207;52.494;4.654;2022-07-23T00:35:37;13.90;99.90
16200;DHT22;8207;52.494;4.654;2022-07-23T00:38:06;13.90;99.90
16200;DHT22;8207;52.494;4.654;2022-07-23T00:40:35;13.90;99.90
16200;DHT22;8207;52.494;4.654;2022-07-23T00:43:02;13.90;99.90
16200;DHT22;8207;52.494;4.654;2022-07-23T00:45:31;13.80;99.90
16200;DHT22;8207;52.494;4.654;2022-07-23T00:47:58;13.80;99.90
16200;DHT22;8207;52.494;4.654;2022-07-23T00:50:26;13.80;99.90
16200;DHT22;8207;52.494;4.654;2022-07-23T00:52:53;13.80;99.90
16200;DHT22;8207;52.494;4.654;2022-07-23T00:55:20;13.80;99.90
16200;DHT22;8207;52.494;4.654;2022-07-23T00:57:47;13.70;99.90
16200;DHT22;8207;52.494;4.654;2022-07-23T01:00:15;13.70;99.90
16200;DHT22;8207;52.494;4.654;2022-07-23T01:02:44;13.70;99.90
16200;DHT22;8207;52.494;4.654;2022-07-23T01:05:11;13.70;99.90
16200;DHT22;8207;52.494;4.654;2022-07-23T01:07:38;13.70;99.90
16200;DHT22;8207;52.494;4.654;2022-07-23T01:10:06;13.60;99.90
16200;DHT22;8207;52.494;4.654;2022-07-23T01:12:53;13.60;99.90
16200;DHT22;8207;52.494;4.654;2022-07-23T01:15:21;13.60;99.90
16200;DHT22;8207;52.494;4.654;2022-07-23T01:17:50;13.60;99.90
16200;DHT22;8207;52.494;4.654;2022-07-23T01:20:17;13.50;99.90
16200;DHT22;8207;52.494;4.654;2022-07-23T01:22:45;13.50;99.90
16200;DHT22;8207;52.494;4.654;2022-07-23T01:25:13;13.50;99.90
16200;DHT22;8207;52.494;4.654;2022-07-23T01:27:39;13.50;99.90
16200;DHT22;8207;52.494;4.654;2022-07-23T01:30:08;13.40;99.90
16200;DHT22;8207;52.494;4.654;2022-07-23T01:32:34;13.40;99.90
16200;DHT22;8207;52.494;4.654;2022-07-23T01:35:01;13.40;99.90
16200;DHT22;8207;52.494;4.654;2022-07-23T01:37:28;13.40;99.90
16200;DHT22;8207;52.494;4.654;2022-07-23T01:39:57;13.40;99.90
16200;DHT22;8207;52.494;4.654;2022-07-23T01:42:24;13.30;99.90
16200;DHT22;8207;52.494;4.654;2022-07-23T01:44:51;13.30;99.90
16200;DHT22;8207;52.494;4.654;2022-07-23T01:47:18;13.30;99.90
16200;DHT22;8207;52.494;4.654;2022-07-23T01:49:45;13.30;99.90
16200;DHT22;8207;52.494;4.654;2022-07-23T01:52:12;13.30;99.90
16200;DHT22;8207;52.494;4.654;2022-07-23T01:54:39;13.30;99.90
16200;DHT22;8207;52.494;4.654;2022-07-23T01:57:07;13.20;99.90
16200;DHT22;8207;52.494;4.654;2022-07-23T01:59:35;13.20;99.90
16200;DHT22;8207;52.494;4.654;2022-07-23T02:02:02;13.20;99.90
16200;DHT22;8207;52.494;4.654;2022-07-23T02:04:31;13.20;99.90
16200;DHT22;8207;52.494;4.654;2022-07-23T02:07:01;13.30;99.90
16200;DHT22;8207;52.494;4.654;2022-07-23T02:09:28;13.30;99.90
16200;DHT22;8207;52.494;4.654;2022-07-23T02:11:55;13.30;99.90
16200;DHT22;8207;52.494;4.654;2022-07-23T02:14:23;13.30;99.90
16200;DHT22;8207;52.494;4.654;2022-07-23T02:16:50;13.30;99.90
16200;DHT22;8207;52.494;4.654;2022-07-23T02:19:17;13.30;99.90
16200;DHT22;8207;52.494;4.654;2022-07-23T02:21:44;13.30;99.90
16200;DHT22;8207;52.494;4.654;2022-07-23T02:24:11;13.20;99.90
16200;DHT22;8207;52.494;4.654;2022-07-23T02:26:38;13.20;99.90
16200;DHT22;8207;52.494;4.654;2022-07-23T02:29:05;13.20;99.90
16200;DHT22;8207;52.494;4.654;2022-07-23T02:31:33;13.20;99.90
16200;DHT22;8207;52.494;4.654;2022-07-23T02:34:01;13.10;99.90
16200;DHT22;8207;52.494;4.654;2022-07-23T02:36:28;13.10;99.90
16200;DHT22;8207;52.494;4.654;2022-07-23T02:38:55;13.10;99.90
16200;DHT22;8207;52.494;4.654;2022-07-23T02:41:22;13.00;99.90
16200;DHT22;8207;52.494;4.654;2022-07-23T02:43:50;13.00;99.90
16200;DHT22;8207;52.494;4.654;2022-07-23T02:46:16;13.00;99.90
16200;DHT22;8207;52.494;4.654;2022-07-23T02:48:45;13.00;99.90
16200;DHT22;8207;52.494;4.654;2022-07-23T02:51:12;13.00;99.90
16200;DHT22;8207;52.494;4.654;2022-07-23T02:53:39;12.90;99.90
16200;DHT22;8207;52.494;4.654;2022-07-23T02:56:05;12.90;99.90
16200;DHT22;8207;52.494;4.654;2022-07-23T02:58:32;12.90;99.90
16200;DHT22;8207;52.494;4.654;2022-07-23T03:00:59;12.90;99.90
16200;DHT22;8207;52.494;4.654;2022-07-23T03:03:26;12.90;99.90
16200;DHT22;8207;52.494;4.654;2022-07-23T03:05:54;12.90;99.90
16200;DHT22;8207;52.494;4.654;2022-07-23T03:08:21;12.90;99.90
16200;DHT22;8207;52.494;4.654;2022-07-23T03:10:48;12.90;99.90
16200;DHT22;8207;52.494;4.654;2022-07-23T03:13:15;12.90;99.90
16200;DHT22;8207;52.494;4.654;2022-07-23T03:15:42;12.80;99.90
16200;DHT22;8207;52.494;4.654;2022-07-23T03:18:09;12.80;99.90
16200;DHT22;8207;52.494;4.654;2022-07-23T03:20:37;12.80;99.90
16200;DHT22;8207;52.494;4.654;2022-07-23T03:23:05;12.80;99.90
16200;DHT22;8207;52.494;4.654;2022-07-23T03:25:32;12.80;99.90
16200;DHT22;8207;52.494;4.654;2022-07-23T03:27:59;12.70;99.90
16200;DHT22;8207;52.494;4.654;2022-07-23T03:30:26;12.70;99.90
16200;DHT22;8207;52.494;4.654;2022-07-23T03:32:53;12.70;99.90
16200;DHT22;8207;52.494;4.654;2022-07-23T03:35:20;12.70;99.90
16200;DHT22;8207;52.494;4.654;2022-07-23T03:37:47;12.70;99.90
16200;DHT22;8207;52.494;4.654;2022-07-23T03:40:15;12.70;99.90
16200;DHT22;8207;52.494;4.654;2022-07-23T03:42:42;12.70;99.90
16200;DHT22;8207;52.494;4.654;2022-07-23T03:45:09;12.70;99.90
16200;DHT22;8207;52.494;4.654;2022-07-23T03:47:36;12.70;99.90
16200;DHT22;8207;52.494;4.654;2022-07-23T03:50:05;12.70;99.90
16200;DHT22;8207;52.494;4.654;2022-07-23T03:52:32;12.70;99.90
16200;DHT22;8207;52.494;4.654;2022-07-23T03:54:59;12.70;99.90
16200;DHT22;8207;52.494;4.654;2022-07-23T03:57:27;12.70;99.90
16200;DHT22;8207;52.494;4.654;2022-07-23T03:59:54;12.70;99.90
16200;DHT22;8207;52.494;4.654;2022-07-23T04:02:21;12.70;99.90
16200;DHT22;8207;52.494;4.654;2022-07-23T04:04:48;12.70;99.90
16200;DHT22;8207;52.494;4.654;2022-07-23T04:07:15;12.70;99.90
16200;DHT22;8207;52.494;4.654;2022-07-23T04:09:43;12.70;99.90
16200;DHT22;8207;52.494;4.654;2022-07-23T04:12:10;12.70;99.90
16200;DHT22;8207;52.494;4.654;2022-07-23T04:14:38;12.70;99.90
16200;DHT22;8207;52.494;4.654;2022-07-23T04:17:05;12.70;99.90
16200;DHT22;8207;52.494;4.654;2022-07-23T04:19:32;12.70;99.90
16200;DHT22;8207;52.494;4.654;2022-07-23T04:21:58;12.70;99.90
16200;DHT22;8207;52.494;4.654;2022-07-23T04:24:26;12.80;99.90
16200;DHT22;8207;52.494;4.654;2022-07-23T04:26:53;12.80;99.90
16200;DHT22;8207;52.494;4.654;2022-07-23T04:29:20;12.80;99.90
16200;DHT22;8207;52.494;4.654;2022-07-23T04:31:48;12.90;99.90
16200;DHT22;8207;52.494;4.654;2022-07-23T04:34:15;12.90;99.90
16200;DHT22;8207;52.494;4.654;2022-07-23T04:36:42;12.90;99.90
16200;DHT22;8207;52.494;4.654;2022-07-23T04:39:09;12.90;99.90
16200;DHT22;8207;52.494;4.654;2022-07-23T04:41:36;12.90;99.90
16200;DHT22;8207;52.494;4.654;2022-07-23T04:44:03;13.00;99.90
16200;DHT22;8207;52.494;4.654;2022-07-23T04:46:30;13.00;99.90
16200;DHT22;8207;52.494;4.654;2022-07-23T04:48:58;13.00;99.90
16200;DHT22;8207;52.494;4.654;2022-07-23T04:51:25;13.10;99.90
16200;DHT22;8207;52.494;4.654;2022-07-23T04:53:52;13.10;99.90
16200;DHT22;8207;52.494;4.654;2022-07-23T04:56:18;13.10;99.90
16200;DHT22;8207;52.494;4.654;2022-07-23T04:58:45;13.20;99.90
16200;DHT22;8207;52.494;4.654;2022-07-23T05:01:12;13.20;99.90
16200;DHT22;8207;52.494;4.654;2022-07-23T05:03:39;13.30;99.90
16200;DHT22;8207;52.494;4.654;2022-07-23T05:06:07;13.30;99.90
16200;DHT22;8207;52.494;4.654;2022-07-23T05:08:34;13.40;99.90
16200;DHT22;8207;52.494;4.654;2022-07-23T05:11:01;13.40;99.90
16200;DHT22;8207;52.494;4.654;2022-07-23T05:13:28;13.50;99.90
16200;DHT22;8207;52.494;4.654;2022-07-23T05:15:55;13.60;99.90
16200;DHT22;8207;52.494;4.654;2022-07-23T05:18:22;13.60;99.90
16200;DHT22;8207;52.494;4.654;2022-07-23T05:20:49;13.60;99.90
16200;DHT22;8207;52.494;4.654;2022-07-23T05:23:17;13.70;99.90
16200;DHT22;8207;52.494;4.654;2022-07-23T05:25:44;13.80;99.90
16200;DHT22;8207;52.494;4.654;2022-07-23T05:28:11;13.80;99.90
16200;DHT22;8207;52.494;4.654;2022-07-23T05:30:38;13.90;99.90
16200;DHT22;8207;52.494;4.654;2022-07-23T05:33:05;14.00;99.90
16200;DHT22;8207;52.494;4.654;2022-07-23T05:35:33;14.10;99.90
16200;DHT22;8207;52.494;4.654;2022-07-23T05:37:59;14.20;99.90
16200;DHT22;8207;52.494;4.654;2022-07-23T05:40:28;14.40;99.90
16200;DHT22;8207;52.494;4.654;2022-07-23T05:42:55;14.60;99.90
16200;DHT22;8207;52.494;4.654;2022-07-23T05:45:21;14.70;99.90
16200;DHT22;8207;52.494;4.654;2022-07-23T05:47:49;14.90;99.90
16200;DHT22;8207;52.494;4.654;2022-07-23T05:50:16;14.90;99.90
16200;DHT22;8207;52.494;4.654;2022-07-23T05:52:44;15.10;99.90
16200;DHT22;8207;52.494;4.654;2022-07-23T05:55:11;15.20;99.90
16200;DHT22;8207;52.494;4.654;2022-07-23T05:57:40;15.20;99.90
16200;DHT22;8207;52.494;4.654;2022-07-23T06:00:09;15.40;99.90
16200;DHT22;8207;52.494;4.654;2022-07-23T06:02:37;15.50;99.90
16200;DHT22;8207;52.494;4.654;2022-07-23T06:05:04;15.60;99.90
16200;DHT22;8207;52.494;4.654;2022-07-23T06:07:33;15.70;99.90
16200;DHT22;8207;52.494;4.654;2022-07-23T06:10:00;15.80;99.90
16200;DHT22;8207;52.494;4.654;2022-07-23T06:12:27;16.00;99.90
16200;DHT22;8207;52.494;4.654;2022-07-23T06:14:55;16.10;99.90
16200;DHT22;8207;52.494;4.654;2022-07-23T06:17:22;16.20;99.90
16200;DHT22;8207;52.494;4.654;2022-07-23T06:19:49;16.30;99.90
16200;DHT22;8207;52.494;4.654;2022-07-23T06:22:16;16.30;99.90
16200;DHT22;8207;52.494;4.654;2022-07-23T06:24:43;16.40;99.90
16200;DHT22;8207;52.494;4.654;2022-07-23T06:27:09;16.40;99.90
16200;DHT22;8207;52.494;4.654;2022-07-23T06:29:36;16.50;99.90
16200;DHT22;8207;52.494;4.654;2022-07-23T06:32:05;16.50;99.90
16200;DHT22;8207;52.494;4.654;2022-07-23T06:34:32;16.70;99.90
16200;DHT22;8207;52.494;4.654;2022-07-23T06:36:59;17.10;99.90
16200;DHT22;8207;52.494;4.654;2022-07-23T06:39:26;17.50;99.90
16200;DHT22;8207;52.494;4.654;2022-07-23T06:41:53;17.90;99.90
16200;DHT22;8207;52.494;4.654;2022-07-23T06:44:20;18.40;99.90
16200;DHT22;8207;52.494;4.654;2022-07-23T06:46:47;18.80;93.40
16200;DHT22;8207;52.494;4.654;2022-07-23T06:49:15;19.20;52.80
16200;DHT22;8207;52.494;4.654;2022-07-23T06:51:42;19.60;1.00
16200;DHT22;8207;52.494;4.654;2022-07-23T06:54:09;19.80;1.00
16200;DHT22;8207;52.494;4.654;2022-07-23T06:56:36;20.10;1.00
16200;DHT22;8207;52.494;4.654;2022-07-23T06:59:03;20.30;1.00
16200;DHT22;8207;52.494;4.654;2022-07-23T07:01:29;20.50;49.20
16200;DHT22;8207;52.494;4.654;2022-07-23T07:03:56;20.70;99.90
16200;DHT22;8207;52.494;4.654;2022-07-23T07:06:24;21.00;1.00
16200;DHT22;8207;52.494;4.654;2022-07-23T07:08:51;21.40;1.00
16200;DHT22;8207;52.494;4.654;2022-07-23T07:11:18;21.70;1.00
16200;DHT22;8207;52.494;4.654;2022-07-23T07:13:45;21.80;99.90
16200;DHT22;8207;52.494;4.654;2022-07-23T07:16:12;22.00;1.00
16200;DHT22;8207;52.494;4.654;2022-07-23T07:18:39;22.30;99.90
16200;DHT22;8207;52.494;4.654;2022-07-23T07:21:06;22.40;1.00
16200;DHT22;8207;52.494;4.654;2022-07-23T07:23:34;22.60;99.90
16200;DHT22;8207;52.494;4.654;2022-07-23T07:26:01;22.90;1.00
16200;DHT22;8207;52.494;4.654;2022-07-23T07:28:28;23.10;1.00
16200;DHT22;8207;52.494;4.654;2022-07-23T07:30:55;23.20;1.00
16200;DHT22;8207;52.494;4.654;2022-07-23T07:33:23;23.40;1.00
16200;DHT22;8207;52.494;4.654;2022-07-23T07:35:50;23.60;1.00
16200;DHT22;8207;52.494;4.654;2022-07-23T07:38:17;23.50;1.00
16200;DHT22;8207;52.494;4.654;2022-07-23T07:40:45;23.50;1.00
16200;DHT22;8207;52.494;4.654;2022-07-23T07:43:12;23.80;1.00
16200;DHT22;8207;52.494;4.654;2022-07-23T07:45:39;24.00;1.00
16200;DHT22;8207;52.494;4.654;2022-07-23T07:48:06;24.10;99.90
16200;DHT22;8207;52.494;4.654;2022-07-23T07:50:33;24.10;99.90
16200;DHT22;8207;52.494;4.654;2022-07-23T07:53:00;24.00;99.90
16200;DHT22;8207;52.494;4.654;2022-07-23T07:55:26;24.00;99.90
16200;DHT22;8207;52.494;4.654;2022-07-23T07:57:55;24.20;99.90
16200;DHT22;8207;52.494;4.654;2022-07-23T08:00:22;24.30;99.90
16200;DHT22;8207;52.494;4.654;2022-07-23T08:02:50;24.60;89.80
16200;DHT22;8207;52.494;4.654;2022-07-23T08:05:19;24.60;13.20
16200;DHT22;8207;52.494;4.654;2022-07-23T08:07:47;24.50;99.90
16200;DHT22;8207;52.494;4.654;2022-07-23T08:10:14;24.80;1.00
16200;DHT22;8207;52.494;4.654;2022-07-23T08:12:43;25.00;1.00
16200;DHT22;8207;52.494;4.654;2022-07-23T08:15:13;25.20;1.00
16200;DHT22;8207;52.494;4.654;2022-07-23T08:17:41;25.30;1.00
16200;DHT22;8207;52.494;4.654;2022-07-23T08:20:09;25.30;1.00
16200;DHT22;8207;52.494;4.654;2022-07-23T08:22:45;25.40;1.00
16200;DHT22;8207;52.494;4.654;2022-07-23T08:25:12;25.50;1.00
16200;DHT22;8207;52.494;4.654;2022-07-23T08:27:39;25.70;1.00
16200;DHT22;8207;52.494;4.654;2022-07-23T08:30:07;25.70;1.00
16200;DHT22;8207;52.494;4.654;2022-07-23T08:32:48;25.70;1.00
16200;DHT22;8207;52.494;4.654;2022-07-23T08:35:15;26.00;1.00
16200;DHT22;8207;52.494;4.654;2022-07-23T08:37:42;26.30;1.00
16200;DHT22;8207;52.494;4.654;2022-07-23T08:40:10;26.50;1.00
16200;DHT22;8207;52.494;4.654;2022-07-23T08:42:37;26.80;1.00
16200;DHT22;8207;52.494;4.654;2022-07-23T08:45:07;26.90;99.90
16200;DHT22;8207;52.494;4.654;2022-07-23T08:47:36;27.10;99.90
16200;DHT22;8207;52.494;4.654;2022-07-23T08:50:07;27.20;99.90
16200;DHT22;8207;52.494;4.654;2022-07-23T08:52:36;27.50;99.90
16200;DHT22;8207;52.494;4.654;2022-07-23T08:55:04;27.60;99.90
16200;DHT22;8207;52.494;4.654;2022-07-23T08:57:31;27.80;99.90
16200;DHT22;8207;52.494;4.654;2022-07-23T08:59:58;27.60;99.90
16200;DHT22;8207;52.494;4.654;2022-07-23T09:02:25;27.40;99.90
16200;DHT22;8207;52.494;4.654;2022-07-23T09:04:52;27.50;99.90
16200;DHT22;8207;52.494;4.654;2022-07-23T09:07:20;27.60;99.90
16200;DHT22;8207;52.494;4.654;2022-07-23T09:09:47;27.70;99.90
16200;DHT22;8207;52.494;4.654;2022-07-23T09:12:26;27.50;99.90
16200;DHT22;8207;52.494;4.654;2022-07-23T09:14:52;27.30;99.90
16200;DHT22;8207;52.494;4.654;2022-07-23T09:17:19;27.30;99.90
16200;DHT22;8207;52.494;4.654;2022-07-23T09:19:47;27.20;99.90
16200;DHT22;8207;52.494;4.654;2022-07-23T09:22:22;27.00;99.90
16200;DHT22;8207;52.494;4.654;2022-07-23T09:25:04;26.80;99.90
16200;DHT22;8207;52.494;4.654;2022-07-23T09:27:46;26.70;99.90
16200;DHT22;8207;52.494;4.654;2022-07-23T09:30:13;26.70;99.90
16200;DHT22;8207;52.494;4.654;2022-07-23T09:32:40;26.50;99.90
16200;DHT22;8207;52.494;4.654;2022-07-23T09:35:07;26.40;99.90
16200;DHT22;8207;52.494;4.654;2022-07-23T09:37:35;26.20;99.90
16200;DHT22;8207;52.494;4.654;2022-07-23T09:40:07;26.10;99.90
16200;DHT22;8207;52.494;4.654;2022-07-23T09:42:34;26.00;99.90
16200;DHT22;8207;52.494;4.654;2022-07-23T09:45:03;26.20;99.90
16200;DHT22;8207;52.494;4.654;2022-07-23T09:47:31;26.30;99.90
16200;DHT22;8207;52.494;4.654;2022-07-23T09:50:00;26.40;99.90
16200;DHT22;8207;52.494;4.654;2022-07-23T09:52:32;26.60;99.90
16200;DHT22;8207;52.494;4.654;2022-07-23T09:55:02;26.60;99.90
16200;DHT22;8207;52.494;4.654;2022-07-23T09:57:31;26.70;99.90
16200;DHT22;8207;52.494;4.654;2022-07-23T10:00:03;26.60;99.90
16200;DHT22;8207;52.494;4.654;2022-07-23T10:02:32;26.70;99.90
16200;DHT22;8207;52.494;4.654;2022-07-23T10:05:01;26.70;99.90
16200;DHT22;8207;52.494;4.654;2022-07-23T10:07:31;26.80;99.90
16200;DHT22;8207;52.494;4.654;2022-07-23T10:10:01;26.80;99.90
16200;DHT22;8207;52.494;4.654;2022-07-23T10:12:28;27.10;99.90
16200;DHT22;8207;52.494;4.654;2022-07-23T10:15:21;27.30;99.90
16200;DHT22;8207;52.494;4.654;2022-07-23T10:17:48;27.60;99.90
16200;DHT22;8207;52.494;4.654;2022-07-23T10:20:15;27.80;99.90
16200;DHT22;8207;52.494;4.654;2022-07-23T10:22:46;28.10;99.90
16200;DHT22;8207;52.494;4.654;2022-07-23T10:25:24;28.20;99.90
16200;DHT22;8207;52.494;4.654;2022-07-23T10:28:04;28.30;99.90
16200;DHT22;8207;52.494;4.654;2022-07-23T10:30:39;28.50;99.90
16200;DHT22;8207;52.494;4.654;2022-07-23T10:33:31;28.70;99.90
16200;DHT22;8207;52.494;4.654;2022-07-23T10:36:04;28.60;99.90
16200;DHT22;8207;52.494;4.654;2022-07-23T10:38:39;28.60;99.90
16200;DHT22;8207;52.494;4.654;2022-07-23T10:41:11;28.30;99.90
16200;DHT22;8207;52.494;4.654;2022-07-23T10:43:38;28.30;99.90
16200;DHT22;8207;52.494;4.654;2022-07-23T10:46:22;28.10;99.90
16200;DHT22;8207;52.494;4.654;2022-07-23T10:52:16;27.60;99.90
16200;DHT22;8207;52.494;4.654;2022-07-23T10:54:46;27.60;99.90
16200;DHT22;8207;52.494;4.654;2022-07-23T10:57:16;27.50;99.90
16200;DHT22;8207;52.494;4.654;2022-07-23T11:00:14;27.50;99.90
16200;DHT22;8207;52.494;4.654;2022-07-23T11:02:44;27.60;99.90
16200;DHT22;8207;52.494;4.654;2022-07-23T11:05:13;27.50;99.90
16200;DHT22;8207;52.494;4.654;2022-07-23T11:08:12;27.50;99.90
16200;DHT22;8207;52.494;4.654;2022-07-23T11:10:42;27.30;99.90
16200;DHT22;8207;52.494;4.654;2022-07-23T11:16:24;27.50;99.90
16200;DHT22;8207;52.494;4.654;2022-07-23T11:19:06;27.70;99.90
16200;DHT22;8207;52.494;4.654;2022-07-23T11:21:50;27.90;99.90
16200;DHT22;8207;52.494;4.654;2022-07-23T11:24:22;28.10;99.90
16200;DHT22;8207;52.494;4.654;2022-07-23T11:26:58;28.10;99.90
16200;DHT22;8207;52.494;4.654;2022-07-23T11:29:39;28.00;99.90
16200;DHT22;8207;52.494;4.654;2022-07-23T11:32:11;28.10;99.90
16200;DHT22;8207;52.494;4.654;2022-07-23T11:34:45;28.10;99.90
16200;DHT22;8207;52.494;4.654;2022-07-23T11:37:28;28.20;99.90
16200;DHT22;8207;52.494;4.654;2022-07-23T11:39:56;28.30;99.90
16200;DHT22;8207;52.494;4.654;2022-07-23T11:42:23;28.20;99.90
16200;DHT22;8207;52.494;4.654;2022-07-23T11:44:50;28.10;99.90
16200;DHT22;8207;52.494;4.654;2022-07-23T11:47:23;28.10;99.90
16200;DHT22;8207;52.494;4.654;2022-07-23T11:49:54;28.20;99.90
16200;DHT22;8207;52.494;4.654;2022-07-23T11:52:22;28.10;99.90
16200;DHT22;8207;52.494;4.654;2022-07-23T11:54:51;27.80;99.90
16200;DHT22;8207;52.494;4.654;2022-07-23T11:57:18;27.70;99.90
16200;DHT22;8207;52.494;4.654;2022-07-23T11:59:47;27.80;99.90
16200;DHT22;8207;52.494;4.654;2022-07-23T12:02:16;27.70;99.90
16200;DHT22;8207;52.494;4.654;2022-07-23T12:04:45;27.40;99.90
16200;DHT22;8207;52.494;4.654;2022-07-23T12:07:28;27.30;99.90
16200;DHT22;8207;52.494;4.654;2022-07-23T12:09:56;27.40;99.90
16200;DHT22;8207;52.494;4.654;2022-07-23T12:12:24;27.30;99.90
16200;DHT22;8207;52.494;4.654;2022-07-23T12:14:52;27.30;99.90
16200;DHT22;8207;52.494;4.654;2022-07-23T12:17:20;27.50;99.90
16200;DHT22;8207;52.494;4.654;2022-07-23T12:19:49;27.60;99.90
16200;DHT22;8207;52.494;4.654;2022-07-23T12:22:16;27.40;99.90
16200;DHT22;8207;52.494;4.654;2022-07-23T12:24:56;27.40;99.90
16200;DHT22;8207;52.494;4.654;2022-07-23T12:27:24;27.40;99.90
16200;DHT22;8207;52.494;4.654;2022-07-23T12:29:51;27.50;99.90
16200;DHT22;8207;52.494;4.654;2022-07-23T12:32:22;27.70;99.90
16200;DHT22;8207;52.494;4.654;2022-07-23T12:35:01;27.80;99.90
16200;DHT22;8207;52.494;4.654;2022-07-23T12:37:30;27.70;99.90
16200;DHT22;8207;52.494;4.654;2022-07-23T12:39:58;27.50;99.90
16200;DHT22;8207;52.494;4.654;2022-07-23T12:42:25;27.50;99.90
16200;DHT22;8207;52.494;4.654;2022-07-23T12:45:06;27.50;99.90
16200;DHT22;8207;52.494;4.654;2022-07-23T12:47:55;27.50;99.90
16200;DHT22;8207;52.494;4.654;2022-07-23T12:50:43;27.50;99.90
16200;DHT22;8207;52.494;4.654;2022-07-23T12:53:13;27.30;99.90
16200;DHT22;8207;52.494;4.654;2022-07-23T12:55:42;27.20;99.90
16200;DHT22;8207;52.494;4.654;2022-07-23T12:58:14;27.00;99.90
16200;DHT22;8207;52.494;4.654;2022-07-23T13:01:04;27.00;99.90
16200;DHT22;8207;52.494;4.654;2022-07-23T13:03:34;26.80;99.90
16200;DHT22;8207;52.494;4.654;2022-07-23T13:06:06;27.00;99.90
16200;DHT22;8207;52.494;4.654;2022-07-23T13:08:34;27.10;99.90
16200;DHT22;8207;52.494;4.654;2022-07-23T13:11:02;27.20;99.90
16200;DHT22;8207;52.494;4.654;2022-07-23T13:13:32;27.40;99.90
16200;DHT22;8207;52.494;4.654;2022-07-23T13:16:00;27.40;99.90
16200;DHT22;8207;52.494;4.654;2022-07-23T13:18:28;27.40;99.90
16200;DHT22;8207;52.494;4.654;2022-07-23T13:20:55;27.40;99.90
16200;DHT22;8207;52.494;4.654;2022-07-23T13:23:24;27.50;99.90
16200;DHT22;8207;52.494;4.654;2022-07-23T13:25:51;27.40;99.90
16200;DHT22;8207;52.494;4.654;2022-07-23T13:28:19;27.40;99.90
16200;DHT22;8207;52.494;4.654;2022-07-23T13:30:47;27.40;99.90
16200;DHT22;8207;52.494;4.654;2022-07-23T13:33:15;27.30;99.90
16200;DHT22;8207;52.494;4.654;2022-07-23T13:35:42;27.30;99.90
16200;DHT22;8207;52.494;4.654;2022-07-23T13:38:09;27.20;99.90
16200;DHT22;8207;52.494;4.654;2022-07-23T13:40:40;27.20;99.90
16200;DHT22;8207;52.494;4.654;2022-07-23T13:43:08;27.20;99.90
16200;DHT22;8207;52.494;4.654;2022-07-23T13:45:35;27.30;99.90
16200;DHT22;8207;52.494;4.654;2022-07-23T13:48:04;27.10;99.90
16200;DHT22;8207;52.494;4.654;2022-07-23T13:50:31;27.00;99.90
16200;DHT22;8207;52.494;4.654;2022-07-23T13:53:01;27.00;99.90
16200;DHT22;8207;52.494;4.654;2022-07-23T13:55:28;27.10;99.90
16200;DHT22;8207;52.494;4.654;2022-07-23T13:57:56;27.00;99.90
16200;DHT22;8207;52.494;4.654;2022-07-23T14:00:24;27.00;99.90
16200;DHT22;8207;52.494;4.654;2022-07-23T14:02:51;27.00;99.90
16200;DHT22;8207;52.494;4.654;2022-07-23T14:05:18;26.80;99.90
16200;DHT22;8207;52.494;4.654;2022-07-23T14:07:45;26.80;99.90
16200;DHT22;8207;52.494;4.654;2022-07-23T14:10:16;26.80;99.90
16200;DHT22;8207;52.494;4.654;2022-07-23T14:12:43;26.60;99.90
16200;DHT22;8207;52.494;4.654;2022-07-23T14:15:11;26.40;99.90
16200;DHT22;8207;52.494;4.654;2022-07-23T14:17:39;26.20;99.90
16200;DHT22;8207;52.494;4.654;2022-07-23T14:20:08;26.10;99.90
16200;DHT22;8207;52.494;4.654;2022-07-23T14:22:35;26.10;99.90
16200;DHT22;8207;52.494;4.654;2022-07-23T14:25:03;26.00;99.90
16200;DHT22;8207;52.494;4.654;2022-07-23T14:27:31;26.00;99.90
16200;DHT22;8207;52.494;4.654;2022-07-23T14:29:57;25.90;99.90
16200;DHT22;8207;52.494;4.654;2022-07-23T14:32:26;26.00;99.90
16200;DHT22;8207;52.494;4.654;2022-07-23T14:34:53;25.90;99.90
16200;DHT22;8207;52.494;4.654;2022-07-23T14:37:20;26.00;99.90
16200;DHT22;8207;52.494;4.654;2022-07-23T14:39:48;26.10;99.90
16200;DHT22;8207;52.494;4.654;2022-07-23T14:42:15;26.20;99.90
16200;DHT22;8207;52.494;4.654;2022-07-23T14:44:42;26.30;99.90
16200;DHT22;8207;52.494;4.654;2022-07-23T14:47:09;26.30;99.90
16200;DHT22;8207;52.494;4.654;2022-07-23T14:49:37;26.30;99.90
16200;DHT22;8207;52.494;4.654;2022-07-23T14:52:05;26.10;99.90
16200;DHT22;8207;52.494;4.654;2022-07-23T14:54:33;26.10;99.90
16200;DHT22;8207;52.494;4.654;2022-07-23T14:57:01;26.10;99.90
16200;DHT22;8207;52.494;4.654;2022-07-23T14:59:28;26.00;99.90
16200;DHT22;8207;52.494;4.654;2022-07-23T15:01:56;25.90;99.90
16200;DHT22;8207;52.494;4.654;2022-07-23T15:04:23;25.80;99.90
16200;DHT22;8207;52.494;4.654;2022-07-23T15:06:51;25.80;99.90
16200;DHT22;8207;52.494;4.654;2022-07-23T15:09:19;25.90;99.90
16200;DHT22;8207;52.494;4.654;2022-07-23T15:11:46;25.80;99.90
16200;DHT22;8207;52.494;4.654;2022-07-23T15:14:13;25.80;99.90
16200;DHT22;8207;52.494;4.654;2022-07-23T15:16:40;25.70;99.90
16200;DHT22;8207;52.494;4.654;2022-07-23T15:19:07;25.70;99.90
16200;DHT22;8207;52.494;4.654;2022-07-23T15:21:33;25.60;99.90
16200;DHT22;8207;52.494;4.654;2022-07-23T15:24:02;25.60;99.90
16200;DHT22;8207;52.494;4.654;2022-07-23T15:26:30;25.50;99.90
16200;DHT22;8207;52.494;4.654;2022-07-23T15:28:57;25.50;99.90
16200;DHT22;8207;52.494;4.654;2022-07-23T15:31:24;25.40;99.90
16200;DHT22;8207;52.494;4.654;2022-07-23T15:33:51;25.40;99.90
16200;DHT22;8207;52.494;4.654;2022-07-23T15:36:19;25.50;99.90
16200;DHT22;8207;52.494;4.654;2022-07-23T15:38:46;25.50;99.90
16200;DHT22;8207;52.494;4.654;2022-07-23T15:41:15;25.50;99.90
16200;DHT22;8207;52.494;4.654;2022-07-23T15:43:42;25.50;99.90
16200;DHT22;8207;52.494;4.654;2022-07-23T15:46:09;25.50;99.90
16200;DHT22;8207;52.494;4.654;2022-07-23T15:48:36;25.40;99.90
16200;DHT22;8207;52.494;4.654;2022-07-23T15:51:04;25.30;99.90
16200;DHT22;8207;52.494;4.654;2022-07-23T15:53:31;25.40;99.90
16200;DHT22;8207;52.494;4.654;2022-07-23T15:55:58;25.40;99.90
16200;DHT22;8207;52.494;4.654;2022-07-23T15:58:26;25.40;99.90
16200;DHT22;8207;52.494;4.654;2022-07-23T16:00:53;25.40;99.90
16200;DHT22;8207;52.494;4.654;2022-07-23T16:03:20;25.30;99.90